sensor_id;sensor_type;location;lat;lon;timestamp;P1;durP1;ratioP1;P2;durP2;ratioP2
21675;SDS011;10999;51.332;9.458;2023-03-19T00:00:32;13.85;;;7.03;;
21675;SDS011;10999;51.332;9.458;2023-03-19T00:02:59;12.57;;;6.63;;
21675;SDS011;10999;51.332;9.458;2023-03-19T00:05:26;13.77;;;7.00;;
21675;SDS011;10999;51.332;9.458;2023-03-19T00:07:53;13.20;;;6.85;;
21675;SDS011;10999;51.332;9.458;2023-03-19T00:10:20;13.93;;;7.78;;
21675;SDS011;10999;51.332;9.458;2023-03-19T00:12:46;12.63;;;7.47;;
21675;SDS011;10999;51.332;9.458;2023-03-19T00:15:13;11.98;;;6.45;;
21675;SDS011;10999;51.332;9.458;2023-03-19T00:17:40;16.92;;;7.80;;
21675;SDS011;10999;51.332;9.458;2023-03-19T00:20:08;13.90;;;7.45;;
21675;SDS011;10999;51.332;9.458;2023-03-19T00:22:37;11.80;;;6.32;;
21675;SDS011;10999;51.332;9.458;2023-03-19T00:25:05;13.20;;;6.60;;
21675;SDS011;10999;51.332;9.458;2023-03-19T00:27:33;19.55;;;8.70;;
21675;SDS011;10999;51.332;9.458;2023-03-19T00:30:01;16.23;;;7.78;;
21675;SDS011;10999;51.332;9.458;2023-03-19T00:32:29;13.85;;;7.43;;
21675;SDS011;10999;51.332;9.458;2023-03-19T00:34:58;14.18;;;7.03;;
21675;SDS011;10999;51.332;9.458;2023-03-19T00:37:25;17.73;;;6.82;;
21675;SDS011;10999;51.332;9.458;2023-03-19T00:39:52;14.55;;;8.10;;
21675;SDS011;10999;51.332;9.458;2023-03-19T00:42:19;15.00;;;7.53;;
21675;SDS011;10999;51.332;9.458;2023-03-19T00:44:46;15.57;;;7.22;;
21675;SDS011;10999;51.332;9.458;2023-03-19T00:47:12;16.05;;;6.90;;
21675;SDS011;10999;51.332;9.458;2023-03-19T00:49:39;15.07;;;7.00;;
21675;SDS011;10999;51.332;9.458;2023-03-19T00:52:06;13.27;;;6.63;;
21675;SDS011;10999;51.332;9.458;2023-03-19T00:54:33;12.88;;;7.10;;
21675;SDS011;10999;51.332;9.458;2023-03-19T00:57:00;14.48;;;6.78;;
21675;SDS011;10999;51.332;9.458;2023-03-19T00:59:27;15.00;;;7.10;;
21675;SDS011;10999;51.332;9.458;2023-03-19T01:01:53;14.25;;;6.55;;
21675;SDS011;10999;51.332;9.458;2023-03-19T01:04:20;13.25;;;6.97;;
21675;SDS011;10999;51.332;9.458;2023-03-19T01:06:48;10.77;;;6.28;;
21675;SDS011;10999;51.332;9.458;2023-03-19T01:09:15;12.93;;;6.63;;
21675;SDS011;10999;51.332;9.458;2023-03-19T01:11:42;10.50;;;5.85;;
21675;SDS011;10999;51.332;9.458;2023-03-19T01:14:09;12.93;;;6.45;;
21675;SDS011;10999;51.332;9.458;2023-03-19T01:16:36;11.35;;;6.20;;
21675;SDS011;10999;51.332;9.458;2023-03-19T01:19:03;13.68;;;6.95;;
21675;SDS011;10999;51.332;9.458;2023-03-19T01:21:31;11.82;;;6.30;;
21675;SDS011;10999;51.332;9.458;2023-03-19T01:23:58;13.02;;;7.05;;
21675;SDS011;10999;51.332;9.458;2023-03-19T01:26:25;14.70;;;6.20;;
21675;SDS011;10999;51.332;9.458;2023-03-19T01:28:52;13.85;;;6.03;;
21675;SDS011;10999;51.332;9.458;2023-03-19T01:31:19;10.02;;;5.50;;
21675;SDS011;10999;51.332;9.458;2023-03-19T01:33:47;12.05;;;6.50;;
21675;SDS011;10999;51.332;9.458;2023-03-19T01:36:14;15.70;;;6.50;;
21675;SDS011;10999;51.332;9.458;2023-03-19T01:38:40;16.48;;;6.60;;
21675;SDS011;10999;51.332;9.458;2023-03-19T01:41:07;13.20;;;7.13;;
21675;SDS011;10999;51.332;9.458;2023-03-19T01:43:34;13.13;;;6.60;;
21675;SDS011;10999;51.332;9.458;2023-03-19T01:46:04;13.57;;;6.05;;
21675;SDS011;10999;51.332;9.458;2023-03-19T01:48:42;14.70;;;5.68;;
21675;SDS011;10999;51.332;9.458;2023-03-19T01:51:13;11.25;;;5.53;;
21675;SDS011;10999;51.332;9.458;2023-03-19T01:53:42;13.10;;;5.95;;
21675;SDS011;10999;51.332;9.458;2023-03-19T01:56:36;13.27;;;6.18;;
21675;SDS011;10999;51.332;9.458;2023-03-19T01:59:05;14.63;;;6.18;;
21675;SDS011;10999;51.332;9.458;2023-03-19T02:01:49;12.55;;;5.68;;
21675;SDS011;10999;51.332;9.458;2023-03-19T02:04:22;11.50;;;6.20;;
21675;SDS011;10999;51.332;9.458;2023-03-19T02:06:54;12.18;;;4.88;;
21675;SDS011;10999;51.332;9.458;2023-03-19T02:09:23;11.13;;;5.18;;
21675;SDS011;10999;51.332;9.458;2023-03-19T02:11:51;10.90;;;4.95;;
21675;SDS011;10999;51.332;9.458;2023-03-19T02:14:19;10.30;;;5.03;;
21675;SDS011;10999;51.332;9.458;2023-03-19T02:16:46;10.80;;;5.85;;
21675;SDS011;10999;51.332;9.458;2023-03-19T02:19:19;11.60;;;5.43;;
21675;SDS011;10999;51.332;9.458;2023-03-19T02:21:53;10.10;;;4.88;;
21675;SDS011;10999;51.332;9.458;2023-03-19T02:24:29;10.50;;;5.90;;
21675;SDS011;10999;51.332;9.458;2023-03-19T02:27:00;11.80;;;5.72;;
21675;SDS011;10999;51.332;9.458;2023-03-19T02:29:27;12.18;;;5.07;;
21675;SDS011;10999;51.332;9.458;2023-03-19T02:31:54;12.02;;;5.63;;
21675;SDS011;10999;51.332;9.458;2023-03-19T02:36:54;10.40;;;5.13;;
21675;SDS011;10999;51.332;9.458;2023-03-19T02:42:29;12.52;;;5.47;;
21675;SDS011;10999;51.332;9.458;2023-03-19T02:44:56;10.88;;;4.63;;
21675;SDS011;10999;51.332;9.458;2023-03-19T02:47:23;10.20;;;5.65;;
21675;SDS011;10999;51.332;9.458;2023-03-19T02:49:51;11.27;;;5.18;;
21675;SDS011;10999;51.332;9.458;2023-03-19T02:52:18;9.98;;;4.78;;
21675;SDS011;10999;51.332;9.458;2023-03-19T02:54:44;11.00;;;5.32;;
21675;SDS011;10999;51.332;9.458;2023-03-19T02:57:11;9.38;;;5.15;;
21675;SDS011;10999;51.332;9.458;2023-03-19T02:59:38;12.02;;;5.43;;
21675;SDS011;10999;51.332;9.458;2023-03-19T03:02:05;12.35;;;5.68;;
21675;SDS011;10999;51.332;9.458;2023-03-19T03:04:32;10.85;;;5.30;;
21675;SDS011;10999;51.332;9.458;2023-03-19T03:07:00;9.75;;;4.85;;
21675;SDS011;10999;51.332;9.458;2023-03-19T03:09:27;9.88;;;5.10;;
21675;SDS011;10999;51.332;9.458;2023-03-19T03:11:54;10.57;;;5.90;;
21675;SDS011;10999;51.332;9.458;2023-03-19T03:14:20;11.77;;;6.18;;
21675;SDS011;10999;51.332;9.458;2023-03-19T03:16:48;10.32;;;5.18;;
21675;SDS011;10999;51.332;9.458;2023-03-19T03:19:14;12.55;;;5.10;;
21675;SDS011;10999;51.332;9.458;2023-03-19T03:21:41;11.48;;;5.85;;
21675;SDS011;10999;51.332;9.458;2023-03-19T03:24:08;13.65;;;6.13;;
21675;SDS011;10999;51.332;9.458;2023-03-19T03:26:36;10.48;;;5.35;;
21675;SDS011;10999;51.332;9.458;2023-03-19T03:29:04;12.90;;;6.15;;
21675;SDS011;10999;51.332;9.458;2023-03-19T03:31:32;14.40;;;6.85;;
21675;SDS011;10999;51.332;9.458;2023-03-19T03:34:00;12.63;;;6.03;;
21675;SDS011;10999;51.332;9.458;2023-03-19T03:36:27;13.75;;;6.00;;
21675;SDS011;10999;51.332;9.458;2023-03-19T03:38:54;11.75;;;6.20;;
21675;SDS011;10999;51.332;9.458;2023-03-19T03:41:21;11.07;;;6.05;;
21675;SDS011;10999;51.332;9.458;2023-03-19T03:43:47;11.60;;;5.30;;
21675;SDS011;10999;51.332;9.458;2023-03-19T03:46:14;11.95;;;5.68;;
21675;SDS011;10999;51.332;9.458;2023-03-19T03:48:41;13.68;;;6.55;;
21675;SDS011;10999;51.332;9.458;2023-03-19T03:51:07;13.15;;;6.38;;
21675;SDS011;10999;51.332;9.458;2023-03-19T03:53:35;12.90;;;5.93;;
21675;SDS011;10999;51.332;9.458;2023-03-19T03:56:02;10.60;;;5.88;;
21675;SDS011;10999;51.332;9.458;2023-03-19T03:58:28;10.00;;;4.65;;
21675;SDS011;10999;51.332;9.458;2023-03-19T04:00:55;12.05;;;6.15;;
21675;SDS011;10999;51.332;9.458;2023-03-19T04:03:22;9.57;;;5.82;;
21675;SDS011;10999;51.332;9.458;2023-03-19T04:05:50;14.57;;;6.95;;
21675;SDS011;10999;51.332;9.458;2023-03-19T04:08:16;11.23;;;5.70;;
21675;SDS011;10999;51.332;9.458;2023-03-19T04:10:43;10.55;;;5.65;;
21675;SDS011;10999;51.332;9.458;2023-03-19T04:13:10;11.48;;;6.90;;
21675;SDS011;10999;51.332;9.458;2023-03-19T04:15:38;15.40;;;7.00;;
21675;SDS011;10999;51.332;9.458;2023-03-19T04:18:07;12.23;;;6.15;;
21675;SDS011;10999;51.332;9.458;2023-03-19T04:20:34;12.60;;;6.38;;
21675;SDS011;10999;51.332;9.458;2023-03-19T04:23:01;16.73;;;6.50;;
21675;SDS011;10999;51.332;9.458;2023-03-19T04:25:28;14.82;;;6.57;;
21675;SDS011;10999;51.332;9.458;2023-03-19T04:27:56;11.40;;;5.80;;
21675;SDS011;10999;51.332;9.458;2023-03-19T04:30:23;12.07;;;6.13;;
21675;SDS011;10999;51.332;9.458;2023-03-19T04:32:50;11.70;;;5.72;;
21675;SDS011;10999;51.332;9.458;2023-03-19T04:35:16;10.27;;;5.80;;
21675;SDS011;10999;51.332;9.458;2023-03-19T04:37:43;11.32;;;6.20;;
21675;SDS011;10999;51.332;9.458;2023-03-19T04:40:14;10.88;;;5.45;;
21675;SDS011;10999;51.332;9.458;2023-03-19T04:42:42;13.70;;;6.72;;
21675;SDS011;10999;51.332;9.458;2023-03-19T04:45:09;14.65;;;6.78;;
21675;SDS011;10999;51.332;9.458;2023-03-19T04:47:37;12.55;;;6.25;;
21675;SDS011;10999;51.332;9.458;2023-03-19T04:50:05;11.35;;;5.60;;
21675;SDS011;10999;51.332;9.458;2023-03-19T04:52:33;11.25;;;5.40;;
21675;SDS011;10999;51.332;9.458;2023-03-19T04:54:59;9.35;;;4.78;;
21675;SDS011;10999;51.332;9.458;2023-03-19T04:57:26;10.40;;;5.53;;
21675;SDS011;10999;51.332;9.458;2023-03-19T04:59:53;10.32;;;5.68;;
21675;SDS011;10999;51.332;9.458;2023-03-19T05:02:19;13.75;;;6.05;;
21675;SDS011;10999;51.332;9.458;2023-03-19T05:04:47;11.20;;;5.22;;
21675;SDS011;10999;51.332;9.458;2023-03-19T05:07:13;12.18;;;5.38;;
21675;SDS011;10999;51.332;9.458;2023-03-19T05:09:40;11.13;;;6.13;;
21675;SDS011;10999;51.332;9.458;2023-03-19T05:12:09;10.57;;;5.28;;
21675;SDS011;10999;51.332;9.458;2023-03-19T05:14:37;9.77;;;5.10;;
21675;SDS011;10999;51.332;9.458;2023-03-19T05:17:04;13.52;;;5.63;;
21675;SDS011;10999;51.332;9.458;2023-03-19T05:19:31;12.05;;;5.72;;
21675;SDS011;10999;51.332;9.458;2023-03-19T05:21:57;9.88;;;5.50;;
21675;SDS011;10999;51.332;9.458;2023-03-19T05:24:24;11.90;;;5.22;;
21675;SDS011;10999;51.332;9.458;2023-03-19T05:26:51;12.57;;;6.28;;
21675;SDS011;10999;51.332;9.458;2023-03-19T05:29:17;12.90;;;5.38;;
21675;SDS011;10999;51.332;9.458;2023-03-19T05:31:44;13.27;;;5.40;;
21675;SDS011;10999;51.332;9.458;2023-03-19T05:34:11;10.07;;;5.15;;
21675;SDS011;10999;51.332;9.458;2023-03-19T05:36:38;10.73;;;5.03;;
21675;SDS011;10999;51.332;9.458;2023-03-19T05:39:05;12.13;;;5.25;;
21675;SDS011;10999;51.332;9.458;2023-03-19T05:41:31;9.50;;;4.80;;
21675;SDS011;10999;51.332;9.458;2023-03-19T05:43:58;9.55;;;4.53;;
21675;SDS011;10999;51.332;9.458;2023-03-19T05:46:25;11.07;;;4.78;;
21675;SDS011;10999;51.332;9.458;2023-03-19T05:48:52;13.43;;;6.20;;
21675;SDS011;10999;51.332;9.458;2023-03-19T05:51:19;11.00;;;5.65;;
21675;SDS011;10999;51.332;9.458;2023-03-19T05:53:46;12.00;;;5.85;;
21675;SDS011;10999;51.332;9.458;2023-03-19T05:56:12;11.68;;;5.80;;
21675;SDS011;10999;51.332;9.458;2023-03-19T05:58:39;14.13;;;6.13;;
21675;SDS011;10999;51.332;9.458;2023-03-19T06:01:06;13.40;;;6.28;;
21675;SDS011;10999;51.332;9.458;2023-03-19T06:03:32;11.82;;;5.82;;
21675;SDS011;10999;51.332;9.458;2023-03-19T06:05:59;11.00;;;5.50;;
21675;SDS011;10999;51.332;9.458;2023-03-19T06:08:26;12.93;;;6.25;;
21675;SDS011;10999;51.332;9.458;2023-03-19T06:10:53;13.20;;;6.47;;
21675;SDS011;10999;51.332;9.458;2023-03-19T06:13:19;12.70;;;6.53;;
21675;SDS011;10999;51.332;9.458;2023-03-19T06:15:47;11.85;;;5.93;;
21675;SDS011;10999;51.332;9.458;2023-03-19T06:18:15;12.02;;;6.35;;
21675;SDS011;10999;51.332;9.458;2023-03-19T06:20:42;10.98;;;6.18;;
21675;SDS011;10999;51.332;9.458;2023-03-19T06:23:09;12.27;;;6.05;;
21675;SDS011;10999;51.332;9.458;2023-03-19T06:25:36;12.70;;;6.03;;
21675;SDS011;10999;51.332;9.458;2023-03-19T06:28:03;14.65;;;7.20;;
21675;SDS011;10999;51.332;9.458;2023-03-19T06:30:31;12.27;;;6.35;;
21675;SDS011;10999;51.332;9.458;2023-03-19T06:32:59;13.23;;;6.53;;
21675;SDS011;10999;51.332;9.458;2023-03-19T06:35:25;12.38;;;6.70;;
21675;SDS011;10999;51.332;9.458;2023-03-19T06:37:52;14.18;;;6.85;;
21675;SDS011;10999;51.332;9.458;2023-03-19T06:40:19;13.07;;;6.65;;
21675;SDS011;10999;51.332;9.458;2023-03-19T06:42:46;13.70;;;6.20;;
21675;SDS011;10999;51.332;9.458;2023-03-19T06:45:13;13.93;;;6.95;;
21675;SDS011;10999;51.332;9.458;2023-03-19T06:47:46;13.98;;;6.28;;
21675;SDS011;10999;51.332;9.458;2023-03-19T06:50:14;14.05;;;6.93;;
21675;SDS011;10999;51.332;9.458;2023-03-19T06:52:42;15.38;;;6.60;;
21675;SDS011;10999;51.332;9.458;2023-03-19T06:55:09;14.20;;;5.07;;
21675;SDS011;10999;51.332;9.458;2023-03-19T06:57:37;16.00;;;6.40;;
21675;SDS011;10999;51.332;9.458;2023-03-19T07:00:04;16.23;;;7.68;;
21675;SDS011;10999;51.332;9.458;2023-03-19T07:02:32;13.45;;;6.60;;
21675;SDS011;10999;51.332;9.458;2023-03-19T07:04:58;14.63;;;7.05;;
21675;SDS011;10999;51.332;9.458;2023-03-19T07:07:25;14.90;;;7.90;;
21675;SDS011;10999;51.332;9.458;2023-03-19T07:09:52;14.65;;;7.55;;
21675;SDS011;10999;51.332;9.458;2023-03-19T07:12:18;12.73;;;7.07;;
21675;SDS011;10999;51.332;9.458;2023-03-19T07:14:45;11.10;;;5.80;;
21675;SDS011;10999;51.332;9.458;2023-03-19T07:17:12;11.48;;;5.25;;
21675;SDS011;10999;51.332;9.458;2023-03-19T07:19:39;13.15;;;5.90;;
21675;SDS011;10999;51.332;9.458;2023-03-19T07:22:06;10.05;;;5.15;;
21675;SDS011;10999;51.332;9.458;2023-03-19T07:24:32;9.95;;;4.55;;
21675;SDS011;10999;51.332;9.458;2023-03-19T07:26:59;10.65;;;5.20;;
21675;SDS011;10999;51.332;9.458;2023-03-19T07:29:27;10.77;;;4.70;;
21675;SDS011;10999;51.332;9.458;2023-03-19T07:31:54;10.32;;;4.20;;
21675;SDS011;10999;51.332;9.458;2023-03-19T07:34:21;11.88;;;5.28;;
21675;SDS011;10999;51.332;9.458;2023-03-19T07:36:48;9.00;;;4.70;;
21675;SDS011;10999;51.332;9.458;2023-03-19T07:39:14;10.02;;;5.65;;
21675;SDS011;10999;51.332;9.458;2023-03-19T07:41:41;9.40;;;4.63;;
21675;SDS011;10999;51.332;9.458;2023-03-19T07:44:13;9.40;;;4.97;;
21675;SDS011;10999;51.332;9.458;2023-03-19T07:46:41;14.52;;;5.50;;
21675;SDS011;10999;51.332;9.458;2023-03-19T07:49:08;10.93;;;4.97;;
21675;SDS011;10999;51.332;9.458;2023-03-19T07:51:35;10.85;;;4.72;;
21675;SDS011;10999;51.332;9.458;2023-03-19T07:54:02;7.85;;;4.32;;
21675;SDS011;10999;51.332;9.458;2023-03-19T07:56:29;10.27;;;5.00;;
21675;SDS011;10999;51.332;9.458;2023-03-19T07:58:56;10.73;;;4.93;;
21675;SDS011;10999;51.332;9.458;2023-03-19T08:01:23;10.70;;;4.68;;
21675;SDS011;10999;51.332;9.458;2023-03-19T08:03:49;9.90;;;4.47;;
21675;SDS011;10999;51.332;9.458;2023-03-19T08:06:16;8.77;;;4.00;;
21675;SDS011;10999;51.332;9.458;2023-03-19T08:08:43;10.20;;;4.63;;
21675;SDS011;10999;51.332;9.458;2023-03-19T08:11:09;11.95;;;4.75;;
21675;SDS011;10999;51.332;9.458;2023-03-19T08:13:36;8.77;;;4.20;;
21675;SDS011;10999;51.332;9.458;2023-03-19T08:16:03;9.63;;;4.25;;
21675;SDS011;10999;51.332;9.458;2023-03-19T08:18:30;8.80;;;3.90;;
21675;SDS011;10999;51.332;9.458;2023-03-19T08:20:57;13.95;;;5.60;;
21675;SDS011;10999;51.332;9.458;2023-03-19T08:23:24;11.45;;;4.57;;
21675;SDS011;10999;51.332;9.458;2023-03-19T08:25:52;10.18;;;4.45;;
21675;SDS011;10999;51.332;9.458;2023-03-19T08:28:20;11.65;;;4.32;;
21675;SDS011;10999;51.332;9.458;2023-03-19T08:30:47;11.77;;;4.47;;
21675;SDS011;10999;51.332;9.458;2023-03-19T08:33:14;10.95;;;4.60;;
21675;SDS011;10999;51.332;9.458;2023-03-19T08:35:41;10.38;;;4.35;;
21675;SDS011;10999;51.332;9.458;2023-03-19T08:38:08;9.75;;;4.30;;
21675;SDS011;10999;51.332;9.458;2023-03-19T08:40:36;11.57;;;5.03;;
21675;SDS011;10999;51.332;9.458;2023-03-19T08:43:02;9.85;;;4.43;;
21675;SDS011;10999;51.332;9.458;2023-03-19T08:45:29;9.50;;;4.78;;
21675;SDS011;10999;51.332;9.458;2023-03-19T08:47:56;10.63;;;5.20;;
21675;SDS011;10999;51.332;9.458;2023-03-19T08:50:23;10.77;;;4.55;;
21675;SDS011;10999;51.332;9.458;2023-03-19T08:52:50;8.38;;;4.10;;
21675;SDS011;10999;51.332;9.458;2023-03-19T08:55:17;9.55;;;3.72;;
21675;SDS011;10999;51.332;9.458;2023-03-19T08:57:44;9.32;;;4.38;;
21675;SDS011;10999;51.332;9.458;2023-03-19T09:00:11;11.07;;;4.40;;
21675;SDS011;10999;51.332;9.458;2023-03-19T09:02:38;11.55;;;4.53;;
21675;SDS011;10999;51.332;9.458;2023-03-19T09:05:05;9.43;;;4.50;;
21675;SDS011;10999;51.332;9.458;2023-03-19T09:07:32;9.38;;;4.25;;
21675;SDS011;10999;51.332;9.458;2023-03-19T09:09:59;10.02;;;4.82;;
21675;SDS011;10999;51.332;9.458;2023-03-19T09:12:26;8.40;;;4.45;;
21675;SDS011;10999;51.332;9.458;2023-03-19T09:14:52;8.48;;;4.25;;
21675;SDS011;10999;51.332;9.458;2023-03-19T09:17:19;8.40;;;3.97;;
21675;SDS011;10999;51.332;9.458;2023-03-19T09:19:47;7.60;;;3.95;;
21675;SDS011;10999;51.332;9.458;2023-03-19T09:22:14;8.55;;;4.13;;
21675;SDS011;10999;51.332;9.458;2023-03-19T09:24:40;8.43;;;4.13;;
21675;SDS011;10999;51.332;9.458;2023-03-19T09:27:07;8.50;;;3.38;;
21675;SDS011;10999;51.332;9.458;2023-03-19T09:29:34;12.32;;;4.30;;
21675;SDS011;10999;51.332;9.458;2023-03-19T09:32:01;9.15;;;4.40;;
21675;SDS011;10999;51.332;9.458;2023-03-19T09:34:27;7.63;;;3.95;;
21675;SDS011;10999;51.332;9.458;2023-03-19T09:36:54;9.77;;;4.03;;
21675;SDS011;10999;51.332;9.458;2023-03-19T09:39:21;10.68;;;4.03;;
21675;SDS011;10999;51.332;9.458;2023-03-19T09:41:50;9.75;;;4.22;;
21675;SDS011;10999;51.332;9.458;2023-03-19T09:44:39;10.70;;;4.53;;
21675;SDS011;10999;51.332;9.458;2023-03-19T09:47:23;9.02;;;4.10;;
21675;SDS011;10999;51.332;9.458;2023-03-19T09:49:52;8.10;;;3.70;;
21675;SDS011;10999;51.332;9.458;2023-03-19T09:52:44;10.88;;;3.72;;
21675;SDS011;10999;51.332;9.458;2023-03-19T09:57:45;7.93;;;3.83;;
21675;SDS011;10999;51.332;9.458;2023-03-19T10:00:20;8.85;;;3.97;;
21675;SDS011;10999;51.332;9.458;2023-03-19T10:02:53;8.20;;;3.72;;
21675;SDS011;10999;51.332;9.458;2023-03-19T10:05:35;10.07;;;3.75;;
21675;SDS011;10999;51.332;9.458;2023-03-19T10:11:22;7.85;;;3.38;;
21675;SDS011;10999;51.332;9.458;2023-03-19T10:14:19;8.05;;;3.65;;
21675;SDS011;10999;51.332;9.458;2023-03-19T10:16:47;8.95;;;3.40;;
21675;SDS011;10999;51.332;9.458;2023-03-19T10:19:17;9.30;;;3.65;;
21675;SDS011;10999;51.332;9.458;2023-03-19T10:21:51;9.40;;;3.40;;
21675;SDS011;10999;51.332;9.458;2023-03-19T10:24:26;8.40;;;2.92;;
21675;SDS011;10999;51.332;9.458;2023-03-19T10:27:01;9.52;;;3.17;;
21675;SDS011;10999;51.332;9.458;2023-03-19T10:29:35;7.18;;;2.65;;
21675;SDS011;10999;51.332;9.458;2023-03-19T10:32:06;8.02;;;2.80;;
21675;SDS011;10999;51.332;9.458;2023-03-19T10:34:50;6.75;;;2.42;;
21675;SDS011;10999;51.332;9.458;2023-03-19T10:37:23;6.15;;;2.65;;
21675;SDS011;10999;51.332;9.458;2023-03-19T10:39:57;6.00;;;2.53;;
21675;SDS011;10999;51.332;9.458;2023-03-19T10:42:45;7.57;;;2.50;;
21675;SDS011;10999;51.332;9.458;2023-03-19T10:47:55;6.63;;;2.30;;
21675;SDS011;10999;51.332;9.458;2023-03-19T10:55:48;7.18;;;2.80;;
21675;SDS011;10999;51.332;9.458;2023-03-19T10:58:20;9.73;;;3.40;;
21675;SDS011;10999;51.332;9.458;2023-03-19T11:00:58;7.85;;;3.38;;
21675;SDS011;10999;51.332;9.458;2023-03-19T11:03:32;6.93;;;2.92;;
21675;SDS011;10999;51.332;9.458;2023-03-19T11:14:19;9.40;;;2.90;;
21675;SDS011;10999;51.332;9.458;2023-03-19T11:17:05;6.75;;;2.70;;
21675;SDS011;10999;51.332;9.458;2023-03-19T11:19:54;6.53;;;2.10;;
21675;SDS011;10999;51.332;9.458;2023-03-19T11:22:29;6.90;;;2.60;;
21675;SDS011;10999;51.332;9.458;2023-03-19T11:24:59;6.10;;;2.63;;
21675;SDS011;10999;51.332;9.458;2023-03-19T11:27:40;6.30;;;2.85;;
21675;SDS011;10999;51.332;9.458;2023-03-19T11:30:16;7.82;;;2.80;;
21675;SDS011;10999;51.332;9.458;2023-03-19T11:41:12;6.13;;;2.58;;
21675;SDS011;10999;51.332;9.458;2023-03-19T11:43:52;7.35;;;2.63;;
21675;SDS011;10999;51.332;9.458;2023-03-19T11:46:44;6.80;;;2.60;;
21675;SDS011;10999;51.332;9.458;2023-03-19T12:08:06;3.92;;;1.52;;
21675;SDS011;10999;51.332;9.458;2023-03-19T12:14:07;4.18;;;1.48;;
21675;SDS011;10999;51.332;9.458;2023-03-19T12:25:06;5.47;;;1.20;;
21675;SDS011;10999;51.332;9.458;2023-03-19T12:27:48;3.15;;;1.25;;
21675;SDS011;10999;51.332;9.458;2023-03-19T12:30:35;4.97;;;0.98;;
21675;SDS011;10999;51.332;9.458;2023-03-19T12:33:25;2.65;;;0.77;;
21675;SDS011;10999;51.332;9.458;2023-03-19T12:36:12;2.85;;;0.90;;
21675;SDS011;10999;51.332;9.458;2023-03-19T12:38:44;2.85;;;0.65;;
21675;SDS011;10999;51.332;9.458;2023-03-19T12:41:23;3.45;;;1.08;;
21675;SDS011;10999;51.332;9.458;2023-03-19T12:44:03;2.85;;;0.80;;
21675;SDS011;10999;51.332;9.458;2023-03-19T12:46:56;1.83;;;0.70;;
21675;SDS011;10999;51.332;9.458;2023-03-19T12:52:12;2.78;;;0.88;;
21675;SDS011;10999;51.332;9.458;2023-03-19T12:54:57;2.63;;;1.00;;
21675;SDS011;10999;51.332;9.458;2023-03-19T12:57:31;3.72;;;0.70;;
21675;SDS011;10999;51.332;9.458;2023-03-19T13:03:05;1.52;;;0.70;;
21675;SDS011;10999;51.332;9.458;2023-03-19T13:08:31;0.82;;;0.60;;
21675;SDS011;10999;51.332;9.458;2023-03-19T13:11:08;2.08;;;0.60;;
21675;SDS011;10999;51.332;9.458;2023-03-19T13:13:44;3.80;;;0.60;;
21675;SDS011;10999;51.332;9.458;2023-03-19T13:16:32;2.95;;;0.70;;
21675;SDS011;10999;51.332;9.458;2023-03-19T13:22:23;2.13;;;0.60;;
21675;SDS011;10999;51.332;9.458;2023-03-19T13:24:53;2.53;;;0.40;;
21675;SDS011;10999;51.332;9.458;2023-03-19T13:27:31;1.25;;;0.40;;
21675;SDS011;10999;51.332;9.458;2023-03-19T13:30:01;0.93;;;0.40;;
21675;SDS011;10999;51.332;9.458;2023-03-19T13:32:47;1.83;;;0.43;;
21675;SDS011;10999;51.332;9.458;2023-03-19T13:35:24;2.00;;;0.50;;
21675;SDS011;10999;51.332;9.458;2023-03-19T13:38:04;0.70;;;0.45;;
21675;SDS011;10999;51.332;9.458;2023-03-19T13:46:03;4.22;;;0.50;;
21675;SDS011;10999;51.332;9.458;2023-03-19T13:51:13;1.63;;;0.45;;
21675;SDS011;10999;51.332;9.458;2023-03-19T13:54:06;1.75;;;0.60;;
21675;SDS011;10999;51.332;9.458;2023-03-19T13:57:01;3.13;;;0.60;;
21675;SDS011;10999;51.332;9.458;2023-03-19T14:04:59;1.05;;;0.52;;
21675;SDS011;10999;51.332;9.458;2023-03-19T14:07:38;3.00;;;0.50;;
21675;SDS011;10999;51.332;9.458;2023-03-19T14:10:11;3.33;;;0.70;;
21675;SDS011;10999;51.332;9.458;2023-03-19T14:12:40;2.67;;;0.50;;
21675;SDS011;10999;51.332;9.458;2023-03-19T14:17:40;1.77;;;0.50;;
21675;SDS011;10999;51.332;9.458;2023-03-19T14:33:54;1.88;;;0.50;;
21675;SDS011;10999;51.332;9.458;2023-03-19T14:39:44;1.67;;;0.47;;
21675;SDS011;10999;51.332;9.458;2023-03-19T14:42:17;1.52;;;0.55;;
21675;SDS011;10999;51.332;9.458;2023-03-19T14:56:30;2.35;;;0.60;;
21675;SDS011;10999;51.332;9.458;2023-03-19T14:58:59;1.50;;;0.60;;
21675;SDS011;10999;51.332;9.458;2023-03-19T15:01:30;3.13;;;0.73;;
21675;SDS011;10999;51.332;9.458;2023-03-19T15:03:59;3.13;;;0.80;;
21675;SDS011;10999;51.332;9.458;2023-03-19T15:06:34;2.53;;;0.60;;
21675;SDS011;10999;51.332;9.458;2023-03-19T15:09:11;2.28;;;0.68;;
21675;SDS011;10999;51.332;9.458;2023-03-19T15:19:34;2.60;;;0.80;;
21675;SDS011;10999;51.332;9.458;2023-03-19T15:22:04;1.60;;;0.55;;
21675;SDS011;10999;51.332;9.458;2023-03-19T15:24:37;5.45;;;1.40;;
21675;SDS011;10999;51.332;9.458;2023-03-19T15:27:17;4.00;;;1.20;;
21675;SDS011;10999;51.332;9.458;2023-03-19T15:29:49;3.25;;;1.10;;
21675;SDS011;10999;51.332;9.458;2023-03-19T15:32:29;3.13;;;0.80;;
21675;SDS011;10999;51.332;9.458;2023-03-19T15:35:20;3.00;;;1.10;;
21675;SDS011;10999;51.332;9.458;2023-03-19T15:37:50;4.32;;;1.20;;
21675;SDS011;10999;51.332;9.458;2023-03-19T15:40:20;2.78;;;1.50;;
21675;SDS011;10999;51.332;9.458;2023-03-19T15:42:50;5.25;;;0.90;;
21675;SDS011;10999;51.332;9.458;2023-03-19T15:45:19;3.42;;;1.08;;
21675;SDS011;10999;51.332;9.458;2023-03-19T15:47:53;3.40;;;0.90;;
21675;SDS011;10999;51.332;9.458;2023-03-19T15:50:34;3.30;;;1.10;;
21675;SDS011;10999;51.332;9.458;2023-03-19T15:53:07;4.90;;;1.27;;
21675;SDS011;10999;51.332;9.458;2023-03-19T15:55:51;2.92;;;1.10;;
21675;SDS011;10999;51.332;9.458;2023-03-19T15:58:20;6.43;;;1.08;;
21675;SDS011;10999;51.332;9.458;2023-03-19T16:00:52;3.20;;;0.90;;
21675;SDS011;10999;51.332;9.458;2023-03-19T16:03:42;2.33;;;0.90;;
21675;SDS011;10999;51.332;9.458;2023-03-19T16:06:13;4.18;;;1.30;;
21675;SDS011;10999;51.332;9.458;2023-03-19T16:09:30;3.65;;;0.85;;
21675;SDS011;10999;51.332;9.458;2023-03-19T16:11:51;3.85;;;0.90;;
21675;SDS011;10999;51.332;9.458;2023-03-19T16:14:26;2.53;;;1.02;;
21675;SDS011;10999;51.332;9.458;2023-03-19T16:17:08;3.17;;;1.60;;
21675;SDS011;10999;51.332;9.458;2023-03-19T16:19:36;2.95;;;0.90;;
21675;SDS011;10999;51.332;9.458;2023-03-19T16:22:12;2.42;;;0.90;;
21675;SDS011;10999;51.332;9.458;2023-03-19T16:24:42;4.95;;;0.90;;
21675;SDS011;10999;51.332;9.458;2023-03-19T16:27:11;2.15;;;0.90;;
21675;SDS011;10999;51.332;9.458;2023-03-19T16:29:44;2.00;;;0.95;;
21675;SDS011;10999;51.332;9.458;2023-03-19T16:34:48;3.63;;;1.17;;
21675;SDS011;10999;51.332;9.458;2023-03-19T16:37:24;3.63;;;1.27;;
21675;SDS011;10999;51.332;9.458;2023-03-19T16:40:43;2.10;;;0.90;;
21675;SDS011;10999;51.332;9.458;2023-03-19T16:42:47;2.78;;;0.90;;
21675;SDS011;10999;51.332;9.458;2023-03-19T16:47:43;3.60;;;0.80;;
21675;SDS011;10999;51.332;9.458;2023-03-19T16:50:15;2.92;;;0.88;;
21675;SDS011;10999;51.332;9.458;2023-03-19T16:52:44;3.78;;;0.70;;
21675;SDS011;10999;51.332;9.458;2023-03-19T16:55:16;2.88;;;0.82;;
21675;SDS011;10999;51.332;9.458;2023-03-19T16:57:49;2.15;;;0.60;;
21675;SDS011;10999;51.332;9.458;2023-03-19T17:00:24;1.58;;;0.65;;
21675;SDS011;10999;51.332;9.458;2023-03-19T17:02:55;2.80;;;0.50;;
21675;SDS011;10999;51.332;9.458;2023-03-19T17:05:22;1.75;;;0.60;;
21675;SDS011;10999;51.332;9.458;2023-03-19T17:07:51;1.80;;;0.52;;
21675;SDS011;10999;51.332;9.458;2023-03-19T17:10:21;2.42;;;0.60;;
21675;SDS011;10999;51.332;9.458;2023-03-19T17:12:51;3.97;;;1.00;;
21675;SDS011;10999;51.332;9.458;2023-03-19T17:15:24;3.05;;;0.70;;